sensor_id;sensor_type;location;lat;lon;timestamp;pressure;altitude;pressure_sealevel;temperature;humidity
6528;BME280;64597;42.664;23.256;2023-04-08T00:00:33;94645.75;;;6.19;58.66
6528;BME280;64597;42.664;23.256;2023-04-08T00:03:00;94638.72;;;6.19;58.70
6528;BME280;64597;42.664;23.256;2023-04-08T00:05:26;94644.53;;;6.21;58.47
6528;BME280;64597;42.664;23.256;2023-04-08T00:07:51;94638.50;;;6.21;58.94
6528;BME280;64597;42.664;23.256;2023-04-08T00:10:17;94626.47;;;6.07;58.69
6528;BME280;64597;42.664;23.256;2023-04-08T00:12:42;94640.50;;;6.19;59.03
6528;BME280;64597;42.664;23.256;2023-04-08T00:15:08;94638.88;;;6.18;59.07
6528;BME280;64597;42.664;23.256;2023-04-08T00:17:34;94636.28;;;6.18;58.93
6528;BME280;64597;42.664;23.256;2023-04-08T00:20:00;94635.88;;;6.14;58.87
6528;BME280;64597;42.664;23.256;2023-04-08T00:22:25;94630.88;;;6.06;59.01
6528;BME280;64597;42.664;23.256;2023-04-08T00:24:50;94633.31;;;5.95;59.82
6528;BME280;64597;42.664;23.256;2023-04-08T00:27:16;94615.59;;;5.77;59.35
6528;BME280;64597;42.664;23.256;2023-04-08T00:29:42;94627.28;;;5.88;59.01
6528;BME280;64597;42.664;23.256;2023-04-08T00:32:07;94631.91;;;5.86;59.63
6528;BME280;64597;42.664;23.256;2023-04-08T00:34:32;94628.31;;;5.87;59.72
6528;BME280;64597;42.664;23.256;2023-04-08T00:36:58;94626.09;;;5.83;60.03
6528;BME280;64597;42.664;23.256;2023-04-08T00:39:23;94633.53;;;5.87;59.93
6528;BME280;64597;42.664;23.256;2023-04-08T00:41:49;94633.94;;;5.83;59.64
6528;BME280;64597;42.664;23.256;2023-04-08T00:44:15;94632.72;;;5.86;59.47
6528;BME280;64597;42.664;23.256;2023-04-08T00:46:40;94644.19;;;5.85;60.03
6528;BME280;64597;42.664;23.256;2023-04-08T00:49:06;94617.00;;;5.66;59.50
6528;BME280;64597;42.664;23.256;2023-04-08T00:51:32;94620.44;;;5.67;60.17
6528;BME280;64597;42.664;23.256;2023-04-08T00:54:00;94633.91;;;5.77;59.44
6528;BME280;64597;42.664;23.256;2023-04-08T00:56:26;94635.72;;;5.76;59.75
6528;BME280;64597;42.664;23.256;2023-04-08T00:58:52;94634.94;;;5.69;59.98
6528;BME280;64597;42.664;23.256;2023-04-08T01:04:16;94653.03;;;5.71;60.68
6528;BME280;64597;42.664;23.256;2023-04-08T01:07:12;94637.31;;;5.64;60.91
6528;BME280;64597;42.664;23.256;2023-04-08T01:09:44;94641.97;;;5.62;61.17
6528;BME280;64597;42.664;23.256;2023-04-08T01:12:11;94651.59;;;5.68;61.02
6528;BME280;64597;42.664;23.256;2023-04-08T01:14:42;94653.03;;;5.64;60.79
6528;BME280;64597;42.664;23.256;2023-04-08T01:17:10;94651.03;;;5.60;61.45
6528;BME280;64597;42.664;23.256;2023-04-08T01:19:38;94656.44;;;5.58;61.26
6528;BME280;64597;42.664;23.256;2023-04-08T01:22:22;94647.22;;;5.49;61.31
6528;BME280;64597;42.664;23.256;2023-04-08T01:24:51;94643.19;;;5.53;61.19
6528;BME280;64597;42.664;23.256;2023-04-08T01:27:22;94646.41;;;5.55;61.31
6528;BME280;64597;42.664;23.256;2023-04-08T01:29:48;94641.34;;;5.60;60.89
6528;BME280;64597;42.664;23.256;2023-04-08T01:32:15;94643.78;;;5.62;61.28
6528;BME280;64597;42.664;23.256;2023-04-08T01:34:41;94626.91;;;5.51;60.75
6528;BME280;64597;42.664;23.256;2023-04-08T01:37:08;94635.53;;;5.58;61.18
6528;BME280;64597;42.664;23.256;2023-04-08T01:39:34;94647.41;;;5.67;61.72
6528;BME280;64597;42.664;23.256;2023-04-08T01:42:01;94647.78;;;5.71;61.00
6528;BME280;64597;42.664;23.256;2023-04-08T01:44:28;94634.31;;;5.67;61.05
6528;BME280;64597;42.664;23.256;2023-04-08T01:46:55;94645.56;;;5.74;61.32
6528;BME280;64597;42.664;23.256;2023-04-08T01:49:22;94652.81;;;5.72;61.17
6528;BME280;64597;42.664;23.256;2023-04-08T01:51:50;94661.47;;;5.73;61.24
6528;BME280;64597;42.664;23.256;2023-04-08T01:54:17;94656.25;;;5.73;60.97
6528;BME280;64597;42.664;23.256;2023-04-08T01:56:44;94650.19;;;5.72;60.75
6528;BME280;64597;42.664;23.256;2023-04-08T01:59:13;94656.03;;;5.74;60.94
6528;BME280;64597;42.664;23.256;2023-04-08T02:01:41;94658.69;;;5.68;61.32
6528;BME280;64597;42.664;23.256;2023-04-08T02:04:08;94661.28;;;5.68;60.77
6528;BME280;64597;42.664;23.256;2023-04-08T02:06:34;94675.56;;;5.65;60.72
6528;BME280;64597;42.664;23.256;2023-04-08T02:09:00;94671.16;;;5.66;61.05
6528;BME280;64597;42.664;23.256;2023-04-08T02:11:26;94676.16;;;5.67;60.94
6528;BME280;64597;42.664;23.256;2023-04-08T02:13:52;94662.69;;;5.57;61.04
6528;BME280;64597;42.664;23.256;2023-04-08T02:16:24;94675.56;;;5.65;60.56
6528;BME280;64597;42.664;23.256;2023-04-08T02:18:57;94676.56;;;5.64;61.55
6528;BME280;64597;42.664;23.256;2023-04-08T02:21:36;94672.34;;;5.63;60.79
6528;BME280;64597;42.664;23.256;2023-04-08T02:24:04;94678.78;;;5.67;60.86
6528;BME280;64597;42.664;23.256;2023-04-08T02:26:33;94676.78;;;5.69;61.18
6528;BME280;64597;42.664;23.256;2023-04-08T02:29:01;94675.97;;;5.69;61.29
6528;BME280;64597;42.664;23.256;2023-04-08T02:31:28;94672.34;;;5.70;61.20
6528;BME280;64597;42.664;23.256;2023-04-08T02:33:54;94675.56;;;5.65;61.31
6528;BME280;64597;42.664;23.256;2023-04-08T02:36:21;94667.50;;;5.60;60.72
6528;BME280;64597;42.664;23.256;2023-04-08T02:38:49;94676.75;;;5.56;61.53
6528;BME280;64597;42.664;23.256;2023-04-08T02:41:15;94676.97;;;5.55;61.28
6528;BME280;64597;42.664;23.256;2023-04-08T02:43:41;94679.97;;;5.58;60.72
6528;BME280;64597;42.664;23.256;2023-04-08T02:46:07;94676.75;;;5.56;61.33
6528;BME280;64597;42.664;23.256;2023-04-08T02:48:33;94671.13;;;5.59;61.07
6528;BME280;64597;42.664;23.256;2023-04-08T02:50:58;94659.69;;;5.54;61.02
6528;BME280;64597;42.664;23.256;2023-04-08T02:53:24;94671.53;;;5.63;61.30
6528;BME280;64597;42.664;23.256;2023-04-08T02:55:49;94659.69;;;5.47;62.20
6528;BME280;64597;42.664;23.256;2023-04-08T02:58:15;94671.94;;;5.53;61.84
6528;BME280;64597;42.664;23.256;2023-04-08T03:00:40;94678.38;;;5.51;62.30
6528;BME280;64597;42.664;23.256;2023-04-08T03:03:06;94666.72;;;5.53;61.50
6528;BME280;64597;42.664;23.256;2023-04-08T03:05:32;94670.53;;;5.51;62.11
6528;BME280;64597;42.664;23.256;2023-04-08T03:07:58;94669.53;;;5.52;61.20
6528;BME280;64597;42.664;23.256;2023-04-08T03:10:23;94671.94;;;5.53;61.78
6528;BME280;64597;42.664;23.256;2023-04-08T03:12:49;94664.69;;;5.55;62.09
6528;BME280;64597;42.664;23.256;2023-04-08T03:15:14;94674.34;;;5.55;61.83
6528;BME280;64597;42.664;23.256;2023-04-08T03:17:40;94672.34;;;5.50;62.11
6528;BME280;64597;42.664;23.256;2023-04-08T03:20:06;94661.88;;;5.50;61.22
6528;BME280;64597;42.664;23.256;2023-04-08T03:22:32;94669.53;;;5.52;61.21
6528;BME280;64597;42.664;23.256;2023-04-08T03:24:58;94661.09;;;5.43;61.56
6528;BME280;64597;42.664;23.256;2023-04-08T03:27:23;94670.31;;;5.52;61.69
6528;BME280;64597;42.664;23.256;2023-04-08T03:29:49;94669.94;;;5.55;61.67
6528;BME280;64597;42.664;23.256;2023-04-08T03:32:14;94674.75;;;5.58;61.20
6528;BME280;64597;42.664;23.256;2023-04-08T03:34:39;94677.56;;;5.57;61.45
6528;BME280;64597;42.664;23.256;2023-04-08T03:37:05;94672.72;;;5.60;61.31
6528;BME280;64597;42.664;23.256;2023-04-08T03:39:31;94681.78;;;5.64;61.86
6528;BME280;64597;42.664;23.256;2023-04-08T03:41:57;94667.72;;;5.59;61.82
6528;BME280;64597;42.664;23.256;2023-04-08T03:44:25;94663.50;;;5.58;62.03
6528;BME280;64597;42.664;23.256;2023-04-08T03:46:50;94661.47;;;5.53;61.36
6528;BME280;64597;42.664;23.256;2023-04-08T03:49:15;94669.53;;;5.52;62.02
6528;BME280;64597;42.664;23.256;2023-04-08T03:51:41;94678.38;;;5.57;62.35
6528;BME280;64597;42.664;23.256;2023-04-08T03:54:06;94681.19;;;5.56;62.41
6528;BME280;64597;42.664;23.256;2023-04-08T03:56:32;94667.09;;;5.57;62.20
6528;BME280;64597;42.664;23.256;2023-04-08T03:58:57;94668.53;;;5.59;62.09
6528;BME280;64597;42.664;23.256;2023-04-08T04:01:22;94679.59;;;5.61;61.86
6528;BME280;64597;42.664;23.256;2023-04-08T04:03:50;94665.69;;;5.54;62.29
6528;BME280;64597;42.664;23.256;2023-04-08T04:06:16;94675.56;;;5.65;61.77
6528;BME280;64597;42.664;23.256;2023-04-08T04:08:41;94674.75;;;5.65;62.25
6528;BME280;64597;42.664;23.256;2023-04-08T04:11:07;94658.66;;;5.55;62.11
6528;BME280;64597;42.664;23.256;2023-04-08T04:13:32;94671.94;;;5.60;61.39
6528;BME280;64597;42.664;23.256;2023-04-08T04:15:58;94668.72;;;5.51;61.51
6528;BME280;64597;42.664;23.256;2023-04-08T04:18:23;94679.19;;;5.58;61.08
6528;BME280;64597;42.664;23.256;2023-04-08T04:20:48;94672.34;;;5.57;61.40
6528;BME280;64597;42.664;23.256;2023-04-08T04:23:14;94678.78;;;5.54;61.99
6528;BME280;64597;42.664;23.256;2023-04-08T04:25:40;94683.63;;;5.57;61.87
6528;BME280;64597;42.664;23.256;2023-04-08T04:28:06;94676.34;;;5.46;62.31
6528;BME280;64597;42.664;23.256;2023-04-08T04:30:32;94692.88;;;5.53;62.12
6528;BME280;64597;42.664;23.256;2023-04-08T04:32:57;94683.81;;;5.49;62.80
6528;BME280;64597;42.664;23.256;2023-04-08T04:35:23;94694.06;;;5.57;62.36
6528;BME280;64597;42.664;23.256;2023-04-08T04:37:48;94692.25;;;5.51;62.93
6528;BME280;64597;42.664;23.256;2023-04-08T04:40:16;94695.69;;;5.52;62.95
6528;BME280;64597;42.664;23.256;2023-04-08T04:42:41;94693.06;;;5.52;62.33
6528;BME280;64597;42.664;23.256;2023-04-08T04:45:07;94684.00;;;5.41;62.95
6528;BME280;64597;42.664;23.256;2023-04-08T04:47:34;94698.28;;;5.45;63.21
6528;BME280;64597;42.664;23.256;2023-04-08T04:49:59;94697.88;;;5.35;63.19
6528;BME280;64597;42.664;23.256;2023-04-08T04:52:25;94702.09;;;5.36;63.62
6528;BME280;64597;42.664;23.256;2023-04-08T04:54:50;94692.44;;;5.37;62.93
6528;BME280;64597;42.664;23.256;2023-04-08T04:57:16;94700.69;;;5.40;63.16
6528;BME280;64597;42.664;23.256;2023-04-08T04:59:41;94699.06;;;5.46;62.81
6528;BME280;64597;42.664;23.256;2023-04-08T05:02:07;94697.88;;;5.48;62.95
6528;BME280;64597;42.664;23.256;2023-04-08T05:04:32;94591.41;;;4.64;63.24
6528;BME280;64597;42.664;23.256;2023-04-08T05:06:58;94703.31;;;5.53;63.56
6528;BME280;64597;42.664;23.256;2023-04-08T05:09:24;94705.34;;;5.58;63.24
6528;BME280;64597;42.664;23.256;2023-04-08T05:11:50;94703.72;;;5.57;62.77
6528;BME280;64597;42.664;23.256;2023-04-08T05:14:15;94700.13;;;5.58;62.93
6528;BME280;64597;42.664;23.256;2023-04-08T05:16:40;94685.03;;;5.53;62.92
6528;BME280;64597;42.664;23.256;2023-04-08T05:19:06;94701.50;;;5.60;63.01
6528;BME280;64597;42.664;23.256;2023-04-08T05:21:31;94702.72;;;5.71;62.40
6528;BME280;64597;42.664;23.256;2023-04-08T05:23:57;94702.50;;;5.72;62.45
6528;BME280;64597;42.664;23.256;2023-04-08T05:26:22;94693.06;;;5.71;61.88
6528;BME280;64597;42.664;23.256;2023-04-08T05:28:49;94698.47;;;5.76;61.40
6528;BME280;64597;42.664;23.256;2023-04-08T05:31:15;94704.75;;;5.75;61.45
6528;BME280;64597;42.664;23.256;2023-04-08T05:33:41;94703.94;;;5.75;61.69
6528;BME280;64597;42.664;23.256;2023-04-08T05:36:06;94704.13;;;5.80;61.89
6528;BME280;64597;42.664;23.256;2023-04-08T05:38:32;94696.94;;;5.89;61.99
6528;BME280;64597;42.664;23.256;2023-04-08T05:40:57;94706.16;;;5.98;61.18
6528;BME280;64597;42.664;23.256;2023-04-08T05:43:23;94705.34;;;6.04;61.22
6528;BME280;64597;42.664;23.256;2023-04-08T05:45:48;94698.91;;;6.06;60.77
6528;BME280;64597;42.664;23.256;2023-04-08T05:48:14;94700.13;;;6.17;60.67
6528;BME280;64597;42.664;23.256;2023-04-08T05:50:40;94696.47;;;6.18;60.49
6528;BME280;64597;42.664;23.256;2023-04-08T05:53:05;94698.28;;;6.24;60.42
6528;BME280;64597;42.664;23.256;2023-04-08T05:55:31;94698.88;;;6.26;60.13
6528;BME280;64597;42.664;23.256;2023-04-08T05:57:56;94701.69;;;6.31;59.64
6528;BME280;64597;42.664;23.256;2023-04-08T06:00:21;94699.09;;;6.31;59.51
6528;BME280;64597;42.664;23.256;2023-04-08T06:02:47;94691.44;;;6.29;59.62
6528;BME280;64597;42.664;23.256;2023-04-08T06:05:12;94696.63;;;6.36;59.30
6528;BME280;64597;42.664;23.256;2023-04-08T06:07:38;94697.03;;;6.46;59.89
6528;BME280;64597;42.664;23.256;2023-04-08T06:10:03;94690.78;;;6.53;59.93
6528;BME280;64597;42.664;23.256;2023-04-08T06:12:34;94691.13;;;6.63;59.24
6528;BME280;64597;42.664;23.256;2023-04-08T06:14:59;94695.13;;;6.73;58.75
6528;BME280;64597;42.664;23.256;2023-04-08T06:17:25;94694.91;;;6.81;58.71
6528;BME280;64597;42.664;23.256;2023-04-08T06:19:50;94683.63;;;6.80;58.13
6528;BME280;64597;42.664;23.256;2023-04-08T06:22:16;94690.81;;;6.91;58.10
6528;BME280;64597;42.664;23.256;2023-04-08T06:24:41;94695.06;;;6.92;57.93
6528;BME280;64597;42.664;23.256;2023-04-08T06:27:07;94689.34;;;7.08;57.35
6528;BME280;64597;42.664;23.256;2023-04-08T06:29:33;94693.53;;;7.16;57.39
6528;BME280;64597;42.664;23.256;2023-04-08T06:31:58;94691.69;;;7.23;57.46
6528;BME280;64597;42.664;23.256;2023-04-08T06:34:24;94690.81;;;7.35;57.36
6528;BME280;64597;42.664;23.256;2023-04-08T06:36:49;94700.81;;;7.45;57.02
6528;BME280;64597;42.664;23.256;2023-04-08T06:39:15;94678.88;;;7.39;56.61
6528;BME280;64597;42.664;23.256;2023-04-08T06:41:41;94694.50;;;7.53;56.15
6528;BME280;64597;42.664;23.256;2023-04-08T06:44:06;94697.53;;;7.56;56.08
6528;BME280;64597;42.664;23.256;2023-04-08T06:46:32;94696.69;;;7.62;56.44
6528;BME280;64597;42.664;23.256;2023-04-08T06:48:57;94701.13;;;7.62;56.58
6528;BME280;64597;42.664;23.256;2023-04-08T06:51:23;94704.94;;;7.66;55.71
6528;BME280;64597;42.664;23.256;2023-04-08T06:53:48;94704.34;;;7.64;56.11
6528;BME280;64597;42.664;23.256;2023-04-08T06:56:14;94704.94;;;7.66;56.00
6528;BME280;64597;42.664;23.256;2023-04-08T06:58:39;94701.44;;;7.72;55.97
6528;BME280;64597;42.664;23.256;2023-04-08T07:01:05;94680.28;;;7.67;55.61
6528;BME280;64597;42.664;23.256;2023-04-08T07:03:30;94698.16;;;7.83;56.07
6528;BME280;64597;42.664;23.256;2023-04-08T07:05:56;94692.31;;;7.81;55.90
6528;BME280;64597;42.664;23.256;2023-04-08T07:08:21;94699.66;;;7.97;55.22
6528;BME280;64597;42.664;23.256;2023-04-08T07:10:46;94699.19;;;8.00;54.47
6528;BME280;64597;42.664;23.256;2023-04-08T07:13:12;94696.34;;;8.01;54.37
6528;BME280;64597;42.664;23.256;2023-04-08T07:15:38;94698.75;;;8.09;53.98
6528;BME280;64597;42.664;23.256;2023-04-08T07:18:03;94705.81;;;8.09;54.66
6528;BME280;64597;42.664;23.256;2023-04-08T07:20:30;94711.19;;;8.14;54.55
6528;BME280;64597;42.664;23.256;2023-04-08T07:22:55;94707.72;;;8.20;53.96
6528;BME280;64597;42.664;23.256;2023-04-08T07:25:20;94705.06;;;8.26;53.96
6528;BME280;64597;42.664;23.256;2023-04-08T07:27:46;94698.56;;;8.29;54.14
6528;BME280;64597;42.664;23.256;2023-04-08T07:30:12;94708.75;;;8.44;53.54
6528;BME280;64597;42.664;23.256;2023-04-08T07:32:37;94712.91;;;8.51;53.74
6528;BME280;64597;42.664;23.256;2023-04-08T07:35:03;94716.19;;;8.65;53.05
6528;BME280;64597;42.664;23.256;2023-04-08T07:37:28;94719.50;;;8.78;52.82
6528;BME280;64597;42.664;23.256;2023-04-08T07:39:54;94722.53;;;8.93;54.46
6528;BME280;64597;42.664;23.256;2023-04-08T07:42:19;94710.16;;;10.01;65.37
6528;BME280;64597;42.664;23.256;2023-04-08T07:44:45;94708.94;;;9.74;57.42
6528;BME280;64597;42.664;23.256;2023-04-08T07:47:11;94725.41;;;9.69;54.63
6528;BME280;64597;42.664;23.256;2023-04-08T07:49:37;94724.47;;;9.64;53.29
6528;BME280;64597;42.664;23.256;2023-04-08T07:52:03;94732.81;;;9.61;52.35
6528;BME280;64597;42.664;23.256;2023-04-08T07:54:32;94726.97;;;9.59;51.49
6528;BME280;64597;42.664;23.256;2023-04-08T07:57:00;94729.00;;;9.57;51.81
6528;BME280;64597;42.664;23.256;2023-04-08T07:59:26;94727.44;;;9.56;51.34
6528;BME280;64597;42.664;23.256;2023-04-08T08:01:51;94732.03;;;9.60;50.96
6528;BME280;64597;42.664;23.256;2023-04-08T08:04:17;94729.59;;;9.59;51.28
6528;BME280;64597;42.664;23.256;2023-04-08T08:06:42;94728.59;;;9.60;50.72
6528;BME280;64597;42.664;23.256;2023-04-08T08:09:08;94722.28;;;9.61;51.71
6528;BME280;64597;42.664;23.256;2023-04-08T08:11:34;94728.59;;;9.71;51.31
6528;BME280;64597;42.664;23.256;2023-04-08T08:13:59;94733.13;;;9.82;52.35
6528;BME280;64597;42.664;23.256;2023-04-08T08:16:28;94730.59;;;9.87;51.67
6528;BME280;64597;42.664;23.256;2023-04-08T08:18:54;94740.50;;;10.04;51.21
6528;BME280;64597;42.664;23.256;2023-04-08T08:21:19;94732.47;;;9.98;51.45
6528;BME280;64597;42.664;23.256;2023-04-08T08:23:44;94733.63;;;10.03;51.37
6528;BME280;64597;42.664;23.256;2023-04-08T08:26:10;94715.28;;;9.96;51.36
6528;BME280;64597;42.664;23.256;2023-04-08T08:28:38;94690.41;;;9.80;50.91
6528;BME280;64597;42.664;23.256;2023-04-08T08:31:04;94729.50;;;10.07;51.32
6528;BME280;64597;42.664;23.256;2023-04-08T08:33:31;94733.53;;;10.09;51.41
6528;BME280;64597;42.664;23.256;2023-04-08T08:35:56;94733.31;;;10.11;50.64
6528;BME280;64597;42.664;23.256;2023-04-08T08:38:22;94727.53;;;10.02;50.94
6528;BME280;64597;42.664;23.256;2023-04-08T08:40:56;94740.84;;;10.07;50.90
6528;BME280;64597;42.664;23.256;2023-04-08T08:43:24;94737.78;;;10.10;51.18
6528;BME280;64597;42.664;23.256;2023-04-08T08:45:50;94731.72;;;10.21;51.00
6528;BME280;64597;42.664;23.256;2023-04-08T08:48:16;94728.75;;;10.29;50.93
6528;BME280;64597;42.664;23.256;2023-04-08T08:50:42;94729.34;;;10.31;50.44
6528;BME280;64597;42.664;23.256;2023-04-08T08:53:08;94739.66;;;10.44;51.14
6528;BME280;64597;42.664;23.256;2023-04-08T08:55:33;94733.47;;;10.50;51.06
6528;BME280;64597;42.664;23.256;2023-04-08T08:57:59;94717.44;;;10.52;50.98
6528;BME280;64597;42.664;23.256;2023-04-08T09:00:32;94722.69;;;10.63;50.72
6528;BME280;64597;42.664;23.256;2023-04-08T09:03:15;94735.16;;;10.79;50.01
6528;BME280;64597;42.664;23.256;2023-04-08T09:05:53;94731.25;;;10.94;50.05
6528;BME280;64597;42.664;23.256;2023-04-08T09:10:49;94720.75;;;11.22;48.86
6528;BME280;64597;42.664;23.256;2023-04-08T09:13:14;94734.94;;;11.72;52.71
6528;BME280;64597;42.664;23.256;2023-04-08T09:16:00;94724.16;;;11.90;47.55
6528;BME280;64597;42.664;23.256;2023-04-08T09:18:26;94722.69;;;12.27;47.55
6528;BME280;64597;42.664;23.256;2023-04-08T09:20:52;94720.44;;;12.53;46.60
6528;BME280;64597;42.664;23.256;2023-04-08T09:23:17;94720.72;;;12.73;45.28
6528;BME280;64597;42.664;23.256;2023-04-08T09:25:43;94719.53;;;13.02;45.13
6528;BME280;64597;42.664;23.256;2023-04-08T09:28:18;94710.63;;;13.30;43.87
6528;BME280;64597;42.664;23.256;2023-04-08T09:30:45;94715.16;;;13.56;44.37
6528;BME280;64597;42.664;23.256;2023-04-08T09:33:11;94711.41;;;13.52;43.22
6528;BME280;64597;42.664;23.256;2023-04-08T09:35:36;94708.41;;;13.43;43.29
6528;BME280;64597;42.664;23.256;2023-04-08T09:38:02;94708.53;;;13.53;43.13
6528;BME280;64597;42.664;23.256;2023-04-08T09:40:33;94710.25;;;13.64;42.99
6528;BME280;64597;42.664;23.256;2023-04-08T09:43:05;94704.91;;;13.59;43.36
6528;BME280;64597;42.664;23.256;2023-04-08T09:45:35;94707.91;;;13.46;43.11
6528;BME280;64597;42.664;23.256;2023-04-08T09:48:18;94696.88;;;13.54;42.58
6528;BME280;64597;42.664;23.256;2023-04-08T09:50:49;94701.44;;;13.37;43.04
6528;BME280;64597;42.664;23.256;2023-04-08T09:53:23;94701.44;;;13.37;43.24
6528;BME280;64597;42.664;23.256;2023-04-08T09:55:54;94695.69;;;13.40;42.72
6528;BME280;64597;42.664;23.256;2023-04-08T09:58:26;94683.91;;;13.31;42.45
6528;BME280;64597;42.664;23.256;2023-04-08T10:00:53;94697.59;;;13.23;42.37
6528;BME280;64597;42.664;23.256;2023-04-08T10:03:26;94692.72;;;13.37;41.97
6528;BME280;64597;42.664;23.256;2023-04-08T10:05:53;94693.28;;;13.39;42.20
6528;BME280;64597;42.664;23.256;2023-04-08T10:08:21;94694.69;;;13.46;41.53
6528;BME280;64597;42.664;23.256;2023-04-08T10:10:47;94667.34;;;13.67;41.42
6528;BME280;64597;42.664;23.256;2023-04-08T10:13:13;94679.25;;;13.91;41.03
6528;BME280;64597;42.664;23.256;2023-04-08T10:15:39;94675.81;;;14.23;40.72
6528;BME280;64597;42.664;23.256;2023-04-08T10:23:04;94683.38;;;13.82;40.71
6528;BME280;64597;42.664;23.256;2023-04-08T10:25:37;94665.44;;;13.63;41.84
6528;BME280;64597;42.664;23.256;2023-04-08T10:33:20;94682.81;;;13.05;43.12
6528;BME280;64597;42.664;23.256;2023-04-08T10:35:49;94678.97;;;12.96;43.26
6528;BME280;64597;42.664;23.256;2023-04-08T10:38:17;94691.25;;;12.86;43.96
6528;BME280;64597;42.664;23.256;2023-04-08T10:40:44;94686.75;;;12.65;44.34
6528;BME280;64597;42.664;23.256;2023-04-08T10:43:11;94665.47;;;12.55;44.42
6528;BME280;64597;42.664;23.256;2023-04-08T10:45:37;94661.28;;;12.59;44.88
6528;BME280;64597;42.664;23.256;2023-04-08T10:48:19;94663.00;;;12.70;44.84
6528;BME280;64597;42.664;23.256;2023-04-08T10:53:35;94645.31;;;12.92;44.13
6528;BME280;64597;42.664;23.256;2023-04-08T10:56:12;94662.84;;;12.98;43.84
6528;BME280;64597;42.664;23.256;2023-04-08T11:01:15;94655.31;;;12.68;44.50
6528;BME280;64597;42.664;23.256;2023-04-08T11:03:41;94652.66;;;12.68;44.48
6528;BME280;64597;42.664;23.256;2023-04-08T11:06:07;94646.53;;;12.63;44.62
6528;BME280;64597;42.664;23.256;2023-04-08T11:08:34;94645.00;;;12.67;44.41
6528;BME280;64597;42.664;23.256;2023-04-08T11:11:01;94647.50;;;12.57;44.58
6528;BME280;64597;42.664;23.256;2023-04-08T11:13:27;94635.09;;;12.57;44.45
6528;BME280;64597;42.664;23.256;2023-04-08T11:15:54;94643.81;;;12.41;44.79
6528;BME280;64597;42.664;23.256;2023-04-08T11:18:20;94629.41;;;12.49;45.01
6528;BME280;64597;42.664;23.256;2023-04-08T11:20:49;94630.28;;;12.54;44.51
6528;BME280;64597;42.664;23.256;2023-04-08T11:23:15;94623.09;;;12.71;44.52
6528;BME280;64597;42.664;23.256;2023-04-08T11:25:42;94642.16;;;12.73;44.85
6528;BME280;64597;42.664;23.256;2023-04-08T11:28:09;94589.28;;;12.35;44.12
6528;BME280;64597;42.664;23.256;2023-04-08T11:30:35;94616.91;;;12.44;44.12
6528;BME280;64597;42.664;23.256;2023-04-08T11:33:01;94592.16;;;11.95;44.23
6528;BME280;64597;42.664;23.256;2023-04-08T11:35:30;94600.97;;;12.39;44.17
6528;BME280;64597;42.664;23.256;2023-04-08T11:37:56;94602.75;;;12.55;44.45
6528;BME280;64597;42.664;23.256;2023-04-08T11:40:22;94600.19;;;12.82;43.57
6528;BME280;64597;42.664;23.256;2023-04-08T11:42:49;94598.78;;;12.96;42.86
6528;BME280;64597;42.664;23.256;2023-04-08T11:45:16;94595.72;;;13.04;42.62
6528;BME280;64597;42.664;23.256;2023-04-08T11:47:43;94587.22;;;12.80;42.56
6528;BME280;64597;42.664;23.256;2023-04-08T11:50:09;94584.69;;;12.69;42.76
6528;BME280;64597;42.664;23.256;2023-04-08T11:52:47;94598.53;;;12.32;42.41
6528;BME280;64597;42.664;23.256;2023-04-08T11:55:29;94591.59;;;12.10;42.53
6528;BME280;64597;42.664;23.256;2023-04-08T11:57:56;94591.41;;;12.16;42.94
6528;BME280;64597;42.664;23.256;2023-04-08T12:00:22;94571.16;;;12.22;43.08
6528;BME280;64597;42.664;23.256;2023-04-08T12:02:48;94580.81;;;12.16;43.11
6528;BME280;64597;42.664;23.256;2023-04-08T12:05:14;94563.94;;;12.17;43.39
6528;BME280;64597;42.664;23.256;2023-04-08T12:07:40;94587.50;;;12.02;43.75
6528;BME280;64597;42.664;23.256;2023-04-08T12:10:07;94576.59;;;12.15;43.62
6528;BME280;64597;42.664;23.256;2023-04-08T12:12:32;94561.84;;;12.19;43.54
6528;BME280;64597;42.664;23.256;2023-04-08T12:14:58;94566.16;;;12.25;43.17
6528;BME280;64597;42.664;23.256;2023-04-08T12:17:23;94566.47;;;12.29;43.65
6528;BME280;64597;42.664;23.256;2023-04-08T12:19:49;94552.41;;;12.07;43.77
6528;BME280;64597;42.664;23.256;2023-04-08T12:22:14;94568.00;;;12.25;44.03
6528;BME280;64597;42.664;23.256;2023-04-08T12:24:40;94551.41;;;12.29;43.79
6528;BME280;64597;42.664;23.256;2023-04-08T12:27:06;94568.81;;;12.25;43.44
6528;BME280;64597;42.664;23.256;2023-04-08T12:29:31;94559.94;;;12.15;43.75
6528;BME280;64597;42.664;23.256;2023-04-08T12:31:58;94569.56;;;12.04;44.16
6528;BME280;64597;42.664;23.256;2023-04-08T12:34:23;94556.84;;;12.01;44.05
6528;BME280;64597;42.664;23.256;2023-04-08T12:36:49;94557.72;;;11.90;43.83
6528;BME280;64597;42.664;23.256;2023-04-08T12:39:14;94563.81;;;11.74;43.93
6528;BME280;64597;42.664;23.256;2023-04-08T12:41:40;94566.41;;;11.69;44.09
6528;BME280;64597;42.664;23.256;2023-04-08T12:44:06;94562.00;;;11.75;43.65
6528;BME280;64597;42.664;23.256;2023-04-08T12:46:32;94575.47;;;11.61;44.36
6528;BME280;64597;42.664;23.256;2023-04-08T12:48:57;94572.13;;;11.49;44.53
6528;BME280;64597;42.664;23.256;2023-04-08T12:51:23;94589.38;;;11.69;46.23
6528;BME280;64597;42.664;23.256;2023-04-08T12:53:50;94577.28;;;11.73;46.80
6528;BME280;64597;42.664;23.256;2023-04-08T12:56:16;94566.72;;;11.73;46.86
6528;BME280;64597;42.664;23.256;2023-04-08T12:58:41;94584.50;;;11.94;48.06
6528;BME280;64597;42.664;23.256;2023-04-08T13:01:07;94578.38;;;11.60;50.04
6528;BME280;64597;42.664;23.256;2023-04-08T13:03:35;94574.41;;;11.29;50.58
6528;BME280;64597;42.664;23.256;2023-04-08T13:06:01;94585.53;;;11.31;51.69
6528;BME280;64597;42.664;23.256;2023-04-08T13:08:26;94580.28;;;11.48;52.36
6528;BME280;64597;42.664;23.256;2023-04-08T13:10:52;94576.47;;;11.72;52.00
6528;BME280;64597;42.664;23.256;2023-04-08T13:13:17;94570.31;;;11.83;53.88
6528;BME280;64597;42.664;23.256;2023-04-08T13:15:43;94558.84;;;11.44;49.42
6528;BME280;64597;42.664;23.256;2023-04-08T13:18:08;94559.16;;;11.48;49.65
6528;BME280;64597;42.664;23.256;2023-04-08T13:20:34;94557.94;;;11.67;50.66
6528;BME280;64597;42.664;23.256;2023-04-08T13:23:00;94569.25;;;11.84;50.46
6528;BME280;64597;42.664;23.256;2023-04-08T13:25:25;94571.28;;;11.94;50.49